Ana Sayfa
METAR-TAF:

METAR-TAF

Havaalanları :

Mendoza, Arjantin

Enlem: 32-50S, Boylam: 068-47W, yükseklik: 705 m

Güncel hava durumu gözlemi

Rapor saat 00:00 UTC de 10 dakika önce yapıldı.
Rüzgar batıdan 3 kt
Sıcaklık 17°C
Nem 45%
Basınç 1015 hPa
Görüş mesafesi 10 km veya daha fazla
1500 m altında bulut yok ve kümülonimbus yok

METAR: SAME 240000Z 27003KT CAVOK 17/05 Q1015

Saat: 21:10 (00:10 UTC)

Tahmin

Rapor saat 23:00 UTC de 1 saat ve 10 dakika önce yapıldı.
Ayın 24'si saat 00 UTC'den ayın 24'si saat 24 UTC'ye kadar geçerli Tahmin
Rüzgar güneydoğudan 5 kt
Görüş mesafesi 10 km veya daha fazla
1500 m altında bulut yok ve kümülonimbus yok
Geçici
ayın 24'si saat 12 UTC'den ayın 24'si saat 14 UTC'ye kadar
Rüzgar kuzeydan kt
Görüş mesafesi: 5000 m

TAF: SAME 232300Z 2400/2424 14005KT CAVOK TX23/2420Z TN04/2410Z TEMPO 2412/2414 00000KT 5000 FUHZ NSC

4.000'den fazla havaalanı için hava durumu gözlemleri ve tahminleri (METAR ve TAF raporları).

Kullanılabilir istasyonlar harita üzerinde sarı ve kırmızı noktalarla gösterilir.

İstasyonun adını görmek için fareyi noktanın üzerinde gezdirin.

Sonrasında hava gözlem ve tahminlerini görmek için tıklayın.

Haritayı değiştirmek için: yaklaştırmak için siyah artı işaretli yeşil düğmeye ve uzaklaştırmak için de eksi işaretli düğmeye hızla tıklayın; bitişik haritalar için yeşil okları kullanın.


METAR-TAF: